createdAt,value
2023-04-17T00:01:43.397Z,99.90
2023-04-17T00:04:13.076Z,99.90
2023-04-17T00:06:44.565Z,99.90
2023-04-17T00:09:13.637Z,99.90
2023-04-17T00:11:42.176Z,99.90
2023-04-17T00:14:10.539Z,99.90
2023-04-17T00:16:38.923Z,99.90
2023-04-17T00:19:07.211Z,99.90
2023-04-17T00:21:35.522Z,99.90
2023-04-17T00:24:05.713Z,99.90
2023-04-17T00:26:34.602Z,99.90
2023-04-17T00:29:03.074Z,99.90
2023-04-17T00:31:32.330Z,99.90
2023-04-17T00:34:01.320Z,99.90
2023-04-17T00:36:31.834Z,99.90
2023-04-17T00:39:00.534Z,99.90
2023-04-17T00:41:30.232Z,99.90
2023-04-17T00:43:58.504Z,99.90
2023-04-17T00:46:26.800Z,99.90
2023-04-17T00:48:55.614Z,99.90
2023-04-17T00:51:24.406Z,99.90
2023-04-17T00:53:53.502Z,99.90
2023-04-17T00:56:22.033Z,99.90
2023-04-17T00:58:52.353Z,99.90
2023-04-17T01:01:22.223Z,99.90
2023-04-17T01:03:51.706Z,99.90
2023-04-17T01:06:20.702Z,99.90
2023-04-17T01:08:49.210Z,99.90
2023-04-17T01:11:17.603Z,99.90
2023-04-17T01:13:47.320Z,99.90
2023-04-17T01:16:17.915Z,99.90
2023-04-17T01:18:47.392Z,99.90
2023-04-17T01:21:16.623Z,99.90
2023-04-17T01:23:48.585Z,99.90
2023-04-17T01:26:22.363Z,99.90
2023-04-17T01:28:56.118Z,99.90
2023-04-17T01:31:25.850Z,99.90
2023-04-17T01:33:54.381Z,99.90
2023-04-17T01:36:23.312Z,99.90
2023-04-17T01:38:51.665Z,99.90
2023-04-17T01:41:21.734Z,99.90
2023-04-17T01:43:50.329Z,99.90
2023-04-17T01:46:19.275Z,99.90
2023-04-17T01:48:47.827Z,99.90
2023-04-17T01:51:16.103Z,99.90
2023-04-17T01:53:44.531Z,99.90
2023-04-17T01:56:13.724Z,99.90
2023-04-17T01:58:43.623Z,99.90
2023-04-17T02:01:12.047Z,99.90
2023-04-17T02:03:40.570Z,99.90
2023-04-17T02:06:09.051Z,99.90
2023-04-17T02:08:38.312Z,99.90
2023-04-17T02:11:06.798Z,99.90
2023-04-17T02:13:35.139Z,99.90
2023-04-17T02:16:07.518Z,99.90
2023-04-17T02:18:36.197Z,99.90
2023-04-17T02:21:04.715Z,99.90
2023-04-17T02:23:33.045Z,99.90
2023-04-17T02:26:01.338Z,99.90
2023-04-17T02:28:29.653Z,99.90
2023-04-17T02:30:58.264Z,99.90
2023-04-17T02:33:28.003Z,99.90
2023-04-17T02:35:56.444Z,99.90
2023-04-17T02:38:31.243Z,99.90
2023-04-17T02:41:00.183Z,99.90
2023-04-17T02:43:31.390Z,99.90
2023-04-17T02:45:59.703Z,99.90
2023-04-17T02:48:30.203Z,96.00
2023-04-17T02:50:59.882Z,87.80
2023-04-17T02:53:28.552Z,93.70
2023-04-17T02:55:56.925Z,95.90
2023-04-17T02:58:26.297Z,97.00
2023-04-17T03:01:02.982Z,96.80
2023-04-17T03:03:38.705Z,99.90
2023-04-17T03:06:10.792Z,99.90
2023-04-17T03:08:39.292Z,99.90
2023-04-17T03:11:08.179Z,99.90
2023-04-17T03:13:37.547Z,99.90
2023-04-17T03:16:07.239Z,99.90
2023-04-17T03:18:42.435Z,99.90
2023-04-17T03:21:10.841Z,99.90
2023-04-17T03:23:39.271Z,99.90
2023-04-17T03:26:09.200Z,99.90
2023-04-17T03:28:38.359Z,99.90
2023-04-17T03:31:07.240Z,99.90
2023-04-17T03:33:37.782Z,99.90
2023-04-17T03:36:09.204Z,99.90
2023-04-17T03:38:38.702Z,99.90
2023-04-17T03:41:10.111Z,99.90
2023-04-17T03:43:38.564Z,99.90
2023-04-17T03:46:06.990Z,99.90
2023-04-17T03:48:35.414Z,99.90
2023-04-17T03:51:04.275Z,99.90
2023-04-17T03:53:34.005Z,99.90
2023-04-17T03:56:04.789Z,99.90
2023-04-17T03:58:38.111Z,99.90
2023-04-17T04:01:10.810Z,99.90
2023-04-17T04:03:44.141Z,99.90
2023-04-17T04:06:12.816Z,99.90
2023-04-17T04:08:42.554Z,99.90
2023-04-17T04:11:10.847Z,99.90
2023-04-17T04:13:40.939Z,99.90
2023-04-17T04:16:10.419Z,99.90
2023-04-17T04:18:40.935Z,99.90
2023-04-17T04:21:09.666Z,99.90
2023-04-17T04:23:42.844Z,99.90
2023-04-17T04:26:13.056Z,99.90
2023-04-17T04:28:47.400Z,99.90
2023-04-17T04:31:29.643Z,99.90
2023-04-17T04:34:01.166Z,99.90
2023-04-17T04:36:30.264Z,99.90
2023-04-17T04:39:26.428Z,99.90
2023-04-17T04:41:55.875Z,99.90
2023-04-17T04:44:29.573Z,99.90
2023-04-17T04:46:59.583Z,99.90
2023-04-17T04:49:28.348Z,99.90
2023-04-17T04:51:56.785Z,99.90
2023-04-17T04:54:32.128Z,99.90
2023-04-17T04:57:02.598Z,99.90
2023-04-17T04:59:30.959Z,99.90
2023-04-17T05:02:15.531Z,99.90
2023-04-17T05:04:44.634Z,99.90
2023-04-17T05:07:13.371Z,99.90
2023-04-17T05:09:47.624Z,99.90
2023-04-17T05:12:17.991Z,99.90
2023-04-17T05:14:47.837Z,99.90
2023-04-17T05:17:16.364Z,99.90
2023-04-17T05:19:44.940Z,99.90
2023-04-17T05:22:13.234Z,99.90
2023-04-17T05:24:58.409Z,99.90
2023-04-17T05:27:28.220Z,99.90
2023-04-17T05:29:57.696Z,99.90
2023-04-17T05:32:26.720Z,99.90
2023-04-17T05:34:59.288Z,99.90
2023-04-17T05:37:29.212Z,99.90
2023-04-17T05:40:00.495Z,99.90
2023-04-17T05:42:30.065Z,99.90
2023-04-17T05:44:58.830Z,99.90
2023-04-17T05:47:27.183Z,99.90
2023-04-17T05:49:58.027Z,99.90
2023-04-17T05:52:29.211Z,99.90
2023-04-17T05:54:59.275Z,99.90
2023-04-17T05:57:28.918Z,99.90
2023-04-17T05:59:57.262Z,99.90
2023-04-17T06:02:26.712Z,99.90
2023-04-17T06:04:58.387Z,99.90
2023-04-17T06:07:26.981Z,99.90
2023-04-17T06:09:55.498Z,99.90
2023-04-17T06:12:25.566Z,99.90
2023-04-17T06:14:56.674Z,99.90
2023-04-17T06:17:25.706Z,99.90
2023-04-17T06:19:56.141Z,99.90
2023-04-17T06:22:24.614Z,99.90
2023-04-17T06:24:52.932Z,99.90
2023-04-17T06:27:21.282Z,99.90
2023-04-17T06:29:51.121Z,99.90
2023-04-17T06:32:19.484Z,99.90
2023-04-17T06:34:59.109Z,99.90
2023-04-17T06:37:40.386Z,99.90
2023-04-17T06:40:12.173Z,99.90
2023-04-17T06:42:41.396Z,99.90
2023-04-17T06:45:15.465Z,99.90
2023-04-17T06:47:47.043Z,84.80
2023-04-17T06:50:18.644Z,72.90
2023-04-17T06:52:46.970Z,56.60
2023-04-17T06:55:15.270Z,55.80
2023-04-17T06:57:43.528Z,22.50
2023-04-17T07:00:15.664Z,1.00
2023-04-17T07:02:44.073Z,1.00
2023-04-17T07:05:13.636Z,1.00
2023-04-17T07:07:42.041Z,1.00
2023-04-17T07:10:10.989Z,1.00
2023-04-17T07:12:39.406Z,1.00
2023-04-17T07:15:09.576Z,1.00
2023-04-17T07:17:39.300Z,1.00
2023-04-17T07:20:09.854Z,1.00
2023-04-17T07:22:38.244Z,1.00
2023-04-17T07:25:08.507Z,1.00
2023-04-17T07:27:38.322Z,1.00
2023-04-17T07:30:09.737Z,1.00
2023-04-17T07:32:39.407Z,1.00
2023-04-17T07:35:09.155Z,1.00
2023-04-17T07:37:37.500Z,99.90
2023-04-17T07:40:10.178Z,99.90
2023-04-17T07:42:38.660Z,99.90
2023-04-17T07:45:08.502Z,1.00
2023-04-17T07:47:37.339Z,99.90
2023-04-17T07:50:09.096Z,99.90
2023-04-17T07:52:37.626Z,99.90
2023-04-17T07:55:07.218Z,1.00
2023-04-17T07:57:35.577Z,99.90
2023-04-17T08:00:07.096Z,1.00
2023-04-17T08:02:42.011Z,99.90
2023-04-17T08:05:12.425Z,1.00
2023-04-17T08:07:41.128Z,1.00
2023-04-17T08:10:10.535Z,99.90
2023-04-17T08:12:38.966Z,1.00
2023-04-17T08:15:09.392Z,99.90
2023-04-17T08:17:37.876Z,1.00
2023-04-17T08:20:10.856Z,1.00
2023-04-17T08:22:45.797Z,1.00
2023-04-17T08:25:14.983Z,1.00
2023-04-17T08:27:45.068Z,99.90
2023-04-17T08:30:18.562Z,48.80
2023-04-17T08:32:50.152Z,99.90
2023-04-17T08:35:18.966Z,1.00
2023-04-17T08:37:48.669Z,3.80
2023-04-17T08:40:18.672Z,99.90
2023-04-17T08:42:48.239Z,1.00
2023-04-17T08:45:17.302Z,99.90
2023-04-17T08:47:45.759Z,99.90
2023-04-17T08:50:17.550Z,1.00
2023-04-17T08:52:50.197Z,1.00
2023-04-17T08:55:21.142Z,1.00
2023-04-17T08:57:57.974Z,1.00
2023-04-17T09:00:28.167Z,1.00
2023-04-17T09:02:58.833Z,40.20
2023-04-17T09:05:30.322Z,15.70
2023-04-17T09:08:12.672Z,99.90
2023-04-17T09:10:43.694Z,99.90
2023-04-17T09:13:15.664Z,99.90
2023-04-17T09:15:46.231Z,1.00
2023-04-17T09:18:26.883Z,1.00
2023-04-17T09:20:57.539Z,1.00
2023-04-17T09:23:28.702Z,1.00
2023-04-17T09:26:08.701Z,94.40
2023-04-17T09:28:39.555Z,99.90
2023-04-17T09:31:26.123Z,1.00
2023-04-17T09:33:59.043Z,1.00
2023-04-17T09:36:28.654Z,1.00
2023-04-17T09:38:59.540Z,99.90
2023-04-17T09:41:30.168Z,99.90
2023-04-17T09:44:01.996Z,99.90
2023-04-17T09:46:40.576Z,1.00
2023-04-17T09:49:20.614Z,1.00
2023-04-17T09:51:49.412Z,1.00
2023-04-17T09:54:22.990Z,99.90
2023-04-17T09:56:57.723Z,99.90
2023-04-17T09:59:27.306Z,99.90
2023-04-17T10:01:56.254Z,99.90
2023-04-17T10:04:25.137Z,1.00
2023-04-17T10:06:54.146Z,99.90
2023-04-17T10:09:24.833Z,99.90
2023-04-17T10:11:54.131Z,1.00
2023-04-17T10:14:27.787Z,1.00
2023-04-17T10:16:56.239Z,99.90
2023-04-17T10:19:30.991Z,57.20
2023-04-17T10:22:31.028Z,99.90
2023-04-17T10:25:21.442Z,99.90
2023-04-17T10:27:56.173Z,99.90
2023-04-17T10:30:26.609Z,1.00
2023-04-17T10:33:28.503Z,1.00
2023-04-17T10:35:57.001Z,1.00
2023-04-17T10:38:34.194Z,99.90
2023-04-17T10:41:09.111Z,99.90
2023-04-17T10:43:42.707Z,99.90
2023-04-17T10:46:13.238Z,1.00
2023-04-17T10:48:49.505Z,1.00
2023-04-17T10:51:43.896Z,99.90
2023-04-17T10:54:15.244Z,1.00
2023-04-17T10:56:48.168Z,1.00
2023-04-17T10:59:18.760Z,1.00
2023-04-17T11:02:04.289Z,1.00
2023-04-17T11:04:33.757Z,1.00
2023-04-17T11:07:02.608Z,99.90
2023-04-17T11:09:31.176Z,1.00
2023-04-17T11:12:04.129Z,1.00
2023-04-17T11:14:33.982Z,1.00
2023-04-17T11:17:02.853Z,1.00
2023-04-17T11:19:33.304Z,1.00
2023-04-17T11:22:02.665Z,99.70
2023-04-17T11:24:32.679Z,99.90
2023-04-17T11:27:04.692Z,99.90
2023-04-17T11:29:33.170Z,99.90
2023-04-17T11:32:01.718Z,99.90
2023-04-17T11:34:30.395Z,99.10
2023-04-17T11:37:01.350Z,1.00
2023-04-17T11:39:31.773Z,1.00
2023-04-17T11:42:02.315Z,1.00
2023-04-17T11:44:32.052Z,1.00
2023-04-17T11:47:00.550Z,1.00
2023-04-17T11:49:31.107Z,1.00
2023-04-17T11:52:02.970Z,1.00
2023-04-17T11:54:33.098Z,1.00
2023-04-17T11:57:04.098Z,1.00
2023-04-17T11:59:35.789Z,1.00
2023-04-17T12:02:05.911Z,1.00
2023-04-17T12:04:35.364Z,1.00
2023-04-17T12:07:05.551Z,1.00
2023-04-17T12:09:34.573Z,1.00
2023-04-17T12:12:06.730Z,1.00
2023-04-17T12:14:36.724Z,1.00
2023-04-17T12:17:05.040Z,1.00
2023-04-17T12:19:33.675Z,1.00
2023-04-17T12:22:02.153Z,1.00
2023-04-17T12:24:30.455Z,1.00
2023-04-17T12:27:01.631Z,1.00
2023-04-17T12:29:43.284Z,1.00
2023-04-17T12:32:15.954Z,1.00
2023-04-17T12:34:44.296Z,1.00
2023-04-17T12:37:12.615Z,1.00
2023-04-17T12:39:41.083Z,1.00
2023-04-17T12:42:09.455Z,1.00
2023-04-17T12:44:37.756Z,1.00
2023-04-17T12:47:06.588Z,1.00
2023-04-17T12:49:36.310Z,1.00
2023-04-17T12:52:04.634Z,1.00
2023-04-17T12:54:33.124Z,1.00
2023-04-17T12:57:02.652Z,1.00
2023-04-17T12:59:31.086Z,99.90
2023-04-17T13:01:59.587Z,1.00
2023-04-17T13:04:28.306Z,1.00
2023-04-17T13:06:58.190Z,1.00
2023-04-17T13:09:26.679Z,1.00
2023-04-17T13:11:55.020Z,1.00
2023-04-17T13:14:23.341Z,1.00
2023-04-17T13:16:51.881Z,99.90
2023-04-17T13:19:20.764Z,99.90
2023-04-17T13:21:49.104Z,99.90
2023-04-17T13:24:19.122Z,99.90
2023-04-17T13:26:47.442Z,1.00
2023-04-17T13:29:18.518Z,99.90
2023-04-17T13:31:47.864Z,99.90
2023-04-17T13:34:16.370Z,99.90
2023-04-17T13:36:45.143Z,99.90
2023-04-17T13:39:13.926Z,99.90
2023-04-17T13:41:43.826Z,99.90
2023-04-17T13:44:12.525Z,99.90
2023-04-17T13:46:41.894Z,99.90
2023-04-17T13:49:10.514Z,99.90
2023-04-17T13:51:39.070Z,99.90
2023-04-17T13:54:09.730Z,1.00
2023-04-17T13:56:38.064Z,99.90
2023-04-17T13:59:07.812Z,99.90
2023-04-17T14:01:36.128Z,99.90
2023-04-17T14:04:04.827Z,99.90
2023-04-17T14:06:34.627Z,1.00
2023-04-17T14:09:03.375Z,1.00
2023-04-17T14:11:31.865Z,1.00
2023-04-17T14:14:00.298Z,1.00
2023-04-17T14:16:30.330Z,1.00
2023-04-17T14:19:06.332Z,1.00
2023-04-17T14:21:41.555Z,1.00
2023-04-17T14:24:10.119Z,1.00
2023-04-17T14:26:39.096Z,21.40
2023-04-17T14:29:07.497Z,91.40
2023-04-17T14:31:37.281Z,1.00
2023-04-17T14:34:05.759Z,1.00
2023-04-17T14:36:35.808Z,1.00
2023-04-17T14:39:04.315Z,1.00
2023-04-17T14:41:34.839Z,1.00
2023-04-17T14:44:03.295Z,1.00
2023-04-17T14:46:31.830Z,60.70
2023-04-17T14:49:01.719Z,1.00
2023-04-17T14:51:30.607Z,1.00
2023-04-17T14:53:59.199Z,1.00
2023-04-17T14:56:27.656Z,1.00
2023-04-17T14:58:56.081Z,1.00
2023-04-17T15:01:24.482Z,1.00
2023-04-17T15:03:53.135Z,6.90
2023-04-17T15:06:23.216Z,78.20
2023-04-17T15:08:51.692Z,1.00
2023-04-17T15:11:20.876Z,1.00
2023-04-17T15:13:49.150Z,37.10
2023-04-17T15:16:17.439Z,1.00
2023-04-17T15:18:45.850Z,1.00
2023-04-17T15:21:14.127Z,1.00
2023-04-17T15:23:43.905Z,1.00
2023-04-17T15:26:13.443Z,1.00
2023-04-17T15:28:42.020Z,1.00
2023-04-17T15:31:10.472Z,1.00
2023-04-17T15:33:39.162Z,1.00
2023-04-17T15:36:07.728Z,1.00
2023-04-17T15:38:36.194Z,1.00
2023-04-17T15:41:06.013Z,1.00
2023-04-17T15:43:34.354Z,1.00
2023-04-17T15:46:03.479Z,1.00
2023-04-17T15:48:32.165Z,1.00
2023-04-17T15:51:03.352Z,1.00
2023-04-17T15:53:31.750Z,1.00
2023-04-17T15:56:00.569Z,1.00
2023-04-17T15:58:30.216Z,1.00
2023-04-17T16:00:58.488Z,1.00
2023-04-17T16:03:27.006Z,1.00
2023-04-17T16:05:55.483Z,1.00
2023-04-17T16:08:23.820Z,1.00
2023-04-17T16:10:52.806Z,1.00
2023-04-17T16:13:21.243Z,1.00
2023-04-17T16:15:51.738Z,1.00
2023-04-17T16:18:20.058Z,1.00
2023-04-17T16:20:48.506Z,1.00
2023-04-17T16:23:16.791Z,1.00
2023-04-17T16:25:45.021Z,1.00
2023-04-17T16:28:13.318Z,1.00
2023-04-17T16:30:41.615Z,1.00
2023-04-17T16:33:11.204Z,1.00
2023-04-17T16:35:39.560Z,1.00
2023-04-17T16:38:08.007Z,1.00
2023-04-17T16:40:36.571Z,1.00
2023-04-17T16:43:04.870Z,1.00
2023-04-17T16:45:33.224Z,1.00
2023-04-17T16:48:01.629Z,1.00
2023-04-17T16:50:31.393Z,1.00
2023-04-17T16:52:59.669Z,1.00
2023-04-17T16:55:27.903Z,1.00
2023-04-17T16:57:57.194Z,1.00
2023-04-17T17:00:25.725Z,1.00
2023-04-17T17:02:54.118Z,1.00
2023-04-17T17:05:22.874Z,1.00
2023-04-17T17:07:52.616Z,1.00
2023-04-17T17:10:21.111Z,1.00
2023-04-17T17:12:49.393Z,1.00
2023-04-17T17:15:19.076Z,1.00
2023-04-17T17:17:48.463Z,1.00
2023-04-17T17:20:16.934Z,1.00
2023-04-17T17:22:45.228Z,1.00
2023-04-17T17:25:15.202Z,1.00
2023-04-17T17:27:43.518Z,1.00
2023-04-17T17:30:12.984Z,1.00
2023-04-17T17:32:41.367Z,1.00
2023-04-17T17:35:10.790Z,1.00
2023-04-17T17:37:39.192Z,1.00
2023-04-17T17:40:09.654Z,1.00
2023-04-17T17:42:39.353Z,1.00
2023-04-17T17:45:09.063Z,1.00
2023-04-17T17:47:37.661Z,1.00
2023-04-17T17:50:07.925Z,1.00
2023-04-17T17:52:36.304Z,1.00
2023-04-17T17:55:05.185Z,1.00
2023-04-17T17:57:45.780Z,1.00
2023-04-17T18:00:19.329Z,1.00
2023-04-17T18:02:47.780Z,11.00
2023-04-17T18:05:16.199Z,76.40
2023-04-17T18:07:44.557Z,56.30
2023-04-17T18:10:13.283Z,99.90
2023-04-17T18:12:41.593Z,99.90
2023-04-17T18:15:11.125Z,99.90
2023-04-17T18:17:40.880Z,99.90
2023-04-17T18:20:11.058Z,99.90
2023-04-17T18:22:39.375Z,99.90
2023-04-17T18:25:08.917Z,1.00
2023-04-17T18:27:37.786Z,1.00
2023-04-17T18:30:08.400Z,1.00
2023-04-17T18:32:37.016Z,1.00
2023-04-17T18:35:08.226Z,1.00
2023-04-17T18:37:36.652Z,1.00
2023-04-17T18:40:07.721Z,99.90
2023-04-17T18:42:36.053Z,99.90
2023-04-17T18:45:04.641Z,99.90
2023-04-17T18:47:33.001Z,1.00
2023-04-17T18:50:01.273Z,99.90
2023-04-17T18:52:30.957Z,99.90
2023-04-17T18:54:59.313Z,1.00
2023-04-17T18:57:27.541Z,1.00
2023-04-17T18:59:55.858Z,1.00
2023-04-17T19:02:24.257Z,99.90
2023-04-17T19:04:53.879Z,99.90
2023-04-17T19:07:23.259Z,99.90
2023-04-17T19:09:52.824Z,1.00
2023-04-17T19:12:21.110Z,1.00
2023-04-17T19:14:49.537Z,99.90
2023-04-17T19:17:17.831Z,99.90
2023-04-17T19:19:46.157Z,1.00
2023-04-17T19:22:15.982Z,1.00
2023-04-17T19:24:46.526Z,1.00
2023-04-17T19:27:16.466Z,1.00
2023-04-17T19:29:44.797Z,1.00
2023-04-17T19:32:16.283Z,1.00
2023-04-17T19:34:44.983Z,1.00
2023-04-17T19:37:13.274Z,1.00
2023-04-17T19:39:41.675Z,23.40
2023-04-17T19:42:10.032Z,99.90
2023-04-17T19:44:39.692Z,99.90
2023-04-17T19:47:08.158Z,99.90
2023-04-17T19:49:36.773Z,99.90
2023-04-17T19:52:05.647Z,1.00
2023-04-17T19:54:33.945Z,1.00
2023-04-17T19:57:02.666Z,1.00
2023-04-17T19:59:31.116Z,99.90
2023-04-17T20:02:00.966Z,99.90
2023-04-17T20:04:29.811Z,99.90
2023-04-17T20:06:58.837Z,99.90
2023-04-17T20:09:27.186Z,1.00
2023-04-17T20:11:55.557Z,1.00
2023-04-17T20:14:24.840Z,99.90
2023-04-17T20:16:53.153Z,99.90
2023-04-17T20:19:23.014Z,99.90
2023-04-17T20:21:51.336Z,99.90
2023-04-17T20:24:19.970Z,1.00
2023-04-17T20:26:48.386Z,1.00
2023-04-17T20:29:16.716Z,1.00
2023-04-17T20:31:44.998Z,99.90
2023-04-17T20:34:13.309Z,99.90
2023-04-17T20:36:43.079Z,99.90
2023-04-17T20:39:12.652Z,99.90
2023-04-17T20:41:42.084Z,1.00
2023-04-17T20:44:10.627Z,1.00
2023-04-17T20:46:39.065Z,1.00
2023-04-17T20:49:07.372Z,99.90
2023-04-17T20:51:35.653Z,99.90
2023-04-17T20:54:05.669Z,99.90
2023-04-17T20:56:33.945Z,1.00
2023-04-17T20:59:02.210Z,1.00
2023-04-17T21:01:30.707Z,99.90
2023-04-17T21:03:59.343Z,1.00
2023-04-17T21:06:27.716Z,1.00
2023-04-17T21:08:56.946Z,99.90
2023-04-17T21:11:26.722Z,1.00
2023-04-17T21:13:55.171Z,1.00
2023-04-17T21:16:23.533Z,99.90
2023-04-17T21:18:51.892Z,99.90
2023-04-17T21:21:20.218Z,99.90
2023-04-17T21:23:48.516Z,99.90
2023-04-17T21:26:18.634Z,99.90
2023-04-17T21:28:48.579Z,99.90
2023-04-17T21:31:17.125Z,1.00
2023-04-17T21:33:45.444Z,1.00
2023-04-17T21:36:15.771Z,99.90
2023-04-17T21:38:43.999Z,1.00
2023-04-17T21:41:12.271Z,1.00
2023-04-17T21:43:40.522Z,32.40
2023-04-17T21:46:12.861Z,92.40
2023-04-17T21:48:41.276Z,99.90
2023-04-17T21:51:09.630Z,1.00
2023-04-17T21:53:38.630Z,1.00
2023-04-17T21:56:07.503Z,2.20
2023-04-17T21:58:35.858Z,1.00
2023-04-17T22:01:04.515Z,99.90
2023-04-17T22:03:34.297Z,1.00
2023-04-17T22:06:02.606Z,1.00
2023-04-17T22:08:31.267Z,1.00
2023-04-17T22:10:59.654Z,1.00
2023-04-17T22:13:28.084Z,98.30
2023-04-17T22:15:58.312Z,99.90
2023-04-17T22:18:27.667Z,99.90
2023-04-17T22:20:57.378Z,1.00
2023-04-17T22:23:25.815Z,1.00
2023-04-17T22:25:54.107Z,1.00
2023-04-17T22:28:22.582Z,1.00
2023-04-17T22:30:52.474Z,39.30
2023-04-17T22:33:20.929Z,93.00
2023-04-17T22:35:50.585Z,63.50
2023-04-17T22:38:21.792Z,99.90
2023-04-17T22:40:50.149Z,1.00
2023-04-17T22:43:18.628Z,1.00
2023-04-17T22:45:46.981Z,99.90
2023-04-17T22:48:15.369Z,1.00
2023-04-17T22:50:43.700Z,48.40
2023-04-17T22:53:12.150Z,99.90
2023-04-17T22:55:42.052Z,99.90
2023-04-17T22:58:10.344Z,1.00
2023-04-17T23:00:38.681Z,99.90
2023-04-17T23:03:07.194Z,99.90
2023-04-17T23:05:35.859Z,1.00
2023-04-17T23:08:04.183Z,5.40
2023-04-17T23:10:32.523Z,99.90
2023-04-17T23:13:02.337Z,1.00
2023-04-17T23:15:30.699Z,99.90
2023-04-17T23:17:59.070Z,1.00
2023-04-17T23:20:27.395Z,1.00
2023-04-17T23:22:55.741Z,1.00
2023-04-17T23:25:24.213Z,1.00
2023-04-17T23:27:52.567Z,1.00
2023-04-17T23:30:22.581Z,1.00
2023-04-17T23:32:53.446Z,1.00
2023-04-17T23:35:22.781Z,1.00
2023-04-17T23:37:51.581Z,1.00
2023-04-17T23:40:20.051Z,1.00
2023-04-17T23:42:48.561Z,1.00
2023-04-17T23:45:17.056Z,1.00
2023-04-17T23:47:46.920Z,1.00
2023-04-17T23:50:15.602Z,1.00
2023-04-17T23:52:43.909Z,1.00
2023-04-17T23:55:12.348Z,1.00
2023-04-17T23:57:40.725Z,1.00
